Lakeside, Nebraska
Current Conditions -  °F | °C
As of 8:53 AM on Saturday 22 Nov 2014 (Local Time) from KAIA Reporting Station
Clear Clear  
Wind Chill: 50°   Ceiling: Unl
Heat Index: 50°   Visibility: 10mi
Dew Point: 19°   Wind: 18mph
Humidity: 29%   Direction: 230°SW
Pressure: 29.66"   Gusts: NA
Location:  42.06°N, 102.43°W
Report Text: KAIA 221553Z AUTO 23016KT 10SM CLR 10/M07 A2966 RMK AO2 SLP053 T01001072
Loading
Personal Weather Stations






























Interactive Weather Map New forecast layout! Learn more

10-Day Weather Forecast

Advertisements
Track Severe Weather on mobile